Time;durP1;ratioP1;P1;durP2;ratioP2;P2;SDS_P1;SDS_P2;PMS_P1;PMS_P2;Temp;Humidity;BMP_temperature;BMP_pressure;BME280_temperature;BME280_humidity;BME280_pressure;Samples;Min_cycle;Max_cycle;Signal;HPM_P1;HPM_P2
2022/07/12 00:01:21;;;;;;;4.30;3.58;;;;;;;;;;5144093;27;20376;-69
2022/07/12 00:03:48;;;;;;;4.43;3.78;;;;;;;;;;5143717;27;20201;-69
2022/07/12 00:06:15;;;;;;;3.47;3.28;;;;;;;;;;5143118;27;20234;-69
2022/07/12 00:08:41;;;;;;;3.60;3.38;;;;;;;;;;5143334;27;20462;-69
2022/07/12 00:11:09;;;;;;;3.55;3.35;;;;;;;;;;5143213;27;20247;-69
2022/07/12 00:13:35;;;;;;;3.35;3.25;;;;;;;;;;5143240;27;20201;-69
2022/07/12 00:16:01;;;;;;;3.78;3.58;;;;;;;;;;5142946;27;20200;-69
2022/07/12 00:18:28;;;;;;;3.33;3.22;;;;;;;;;;5143433;27;20552;-69
2022/07/12 00:20:54;;;;;;;3.50;3.30;;;;;;;;;;5143536;27;20266;-69
2022/07/12 00:23:21;;;;;;;3.30;3.20;;;;;;;;;;5143460;27;20194;-69
2022/07/12 00:25:48;;;;;;;4.95;3.80;;;;;;;;;;5143315;27;20364;-69
2022/07/12 00:28:15;;;;;;;3.03;2.92;;;;;;;;;;5143174;27;20191;-69
2022/07/12 00:30:41;;;;;;;3.30;3.10;;;;;;;;;;5143507;27;20225;-69
2022/07/12 00:33:08;;;;;;;3.50;3.30;;;;;;;;;;5143283;27;20194;-69
2022/07/12 00:35:34;;;;;;;4.45;3.13;;;;;;;;;;5143391;27;20205;-69
2022/07/12 00:38:01;;;;;;;3.80;3.58;;;;;;;;;;5142991;27;20215;-69
2022/07/12 00:40:28;;;;;;;3.50;3.40;;;;;;;;;;5143044;27;20202;-69
2022/07/12 00:42:54;;;;;;;3.95;3.67;;;;;;;;;;5143349;27;20231;-69
2022/07/12 00:45:21;;;;;;;3.35;3.25;;;;;;;;;;5143409;27;20384;-69
2022/07/12 00:47:50;;;;;;;3.80;3.50;;;;;;;;;;5143042;27;20198;-69
2022/07/12 00:50:17;;;;;;;3.35;3.10;;;;;;;;;;5143072;27;20198;-69
2022/07/12 00:52:44;;;;;;;3.95;3.65;;;;;;;;;;5143142;27;20194;-69
2022/07/12 00:55:10;;;;;;;3.10;3.00;;;;;;;;;;5143272;27;20195;-69
2022/07/12 00:57:39;;;;;;;3.78;3.47;;;;;;;;;;5142896;27;20379;-69
2022/07/12 01:00:07;;;;;;;3.70;3.40;;;;;;;;;;5143179;27;20549;-69
2022/07/12 01:02:34;;;;;;;4.05;3.60;;;;;;;;;;5143043;27;20195;-69
2022/07/12 01:05:02;;;;;;;3.55;3.30;;;;;;;;;;5142974;27;20214;-69
2022/07/12 01:07:28;;;;;;;4.07;3.80;;;;;;;;;;5145519;27;20250;-69
2022/07/12 01:09:55;;;;;;;3.38;3.28;;;;;;;;;;5146885;27;20194;-69
2022/07/12 01:12:21;;;;;;;3.28;3.08;;;;;;;;;;5147044;27;20370;-69
2022/07/12 01:14:49;;;;;;;3.42;3.33;;;;;;;;;;5146918;27;20198;-69
2022/07/12 01:17:16;;;;;;;3.40;3.30;;;;;;;;;;5146557;27;20195;-69
2022/07/12 01:19:43;;;;;;;3.75;3.45;;;;;;;;;;5146704;27;20198;-69
2022/07/12 01:22:11;;;;;;;4.07;3.92;;;;;;;;;;5146662;27;20273;-69
2022/07/12 01:24:38;;;;;;;3.63;3.42;;;;;;;;;;5146671;27;20205;-69
2022/07/12 01:27:05;;;;;;;3.88;3.72;;;;;;;;;;5146377;27;20202;-69
2022/07/12 01:29:34;;;;;;;3.78;3.53;;;;;;;;;;5146647;27;20198;-69
2022/07/12 01:32:24;;;;;;;4.07;3.80;;;;;;;;;;5145960;27;20194;-69
2022/07/12 01:34:48;;;;;;;4.10;3.85;;;;;;;;;;5146348;27;20225;-69
2022/07/12 01:37:14;;;;;;;3.60;3.50;;;;;;;;;;5146190;27;20202;-69
2022/07/12 01:39:43;;;;;;;3.75;3.45;;;;;;;;;;5146295;27;20239;-69
2022/07/12 01:42:09;;;;;;;3.78;3.58;;;;;;;;;;5146138;27;20194;-69
2022/07/12 01:44:35;;;;;;;3.70;3.40;;;;;;;;;;5146153;27;20240;-69
2022/07/12 01:47:01;;;;;;;3.58;3.45;;;;;;;;;;5146158;27;20239;-69
2022/07/12 01:49:28;;;;;;;3.65;3.55;;;;;;;;;;5146383;27;20405;-69
2022/07/12 01:51:55;;;;;;;3.88;3.58;;;;;;;;;;5146086;27;20239;-69
2022/07/12 01:54:22;;;;;;;3.40;3.28;;;;;;;;;;5146107;27;20231;-69
2022/07/12 01:56:49;;;;;;;3.97;3.78;;;;;;;;;;5145700;27;20239;-69
2022/07/12 01:59:15;;;;;;;3.88;3.58;;;;;;;;;;5146110;27;20560;-69
2022/07/12 02:01:42;;;;;;;4.30;3.45;;;;;;;;;;5146050;27;20239;-69
2022/07/12 02:04:09;;;;;;;4.10;3.78;;;;;;;;;;5145976;27;20195;-69
2022/07/12 02:06:36;;;;;;;3.65;3.42;;;;;;;;;;5145522;27;20223;-69
2022/07/12 02:09:02;;;;;;;4.07;3.72;;;;;;;;;;5145700;27;20194;-69
2022/07/12 02:11:28;;;;;;;3.50;3.20;;;;;;;;;;5145641;27;20505;-69
2022/07/12 02:13:56;;;;;;;4.20;3.70;;;;;;;;;;5145878;27;20498;-69
2022/07/12 02:16:22;;;;;;;4.15;4.00;;;;;;;;;;5145432;27;20427;-69
2022/07/12 02:18:48;;;;;;;4.10;3.80;;;;;;;;;;5145230;27;20218;-69
2022/07/12 02:21:15;;;;;;;3.92;3.70;;;;;;;;;;5145574;27;20198;-69
2022/07/12 02:23:41;;;;;;;3.58;3.35;;;;;;;;;;5145482;27;20194;-69
2022/07/12 02:26:07;;;;;;;3.78;3.58;;;;;;;;;;5145218;27;20194;-69
2022/07/12 02:28:33;;;;;;;3.63;3.50;;;;;;;;;;5145540;27;20235;-69
2022/07/12 02:31:01;;;;;;;4.10;3.80;;;;;;;;;;5145485;27;20383;-69
2022/07/12 02:33:27;;;;;;;5.00;3.58;;;;;;;;;;5145517;27;20194;-69
2022/07/12 02:35:53;;;;;;;3.92;3.58;;;;;;;;;;5145286;27;20198;-69
2022/07/12 02:38:20;;;;;;;4.00;3.70;;;;;;;;;;5144851;27;20249;-69
2022/07/12 02:40:55;;;;;;;6.13;3.80;;;;;;;;;;5145055;27;20203;-69
2022/07/12 02:43:21;;;;;;;3.72;3.45;;;;;;;;;;5145680;27;20194;-69
2022/07/12 02:45:48;;;;;;;3.72;3.40;;;;;;;;;;5144833;27;20310;-69
2022/07/12 02:48:15;;;;;;;3.70;3.50;;;;;;;;;;5144655;27;20194;-69
2022/07/12 02:50:42;;;;;;;4.00;3.80;;;;;;;;;;5144984;27;20198;-69
2022/07/12 02:53:09;;;;;;;3.45;3.25;;;;;;;;;;5144783;27;20239;-69
2022/07/12 02:55:35;;;;;;;3.10;3.00;;;;;;;;;;5145030;27;20231;-69
2022/07/12 02:58:01;;;;;;;3.10;3.00;;;;;;;;;;5144235;27;20218;-69
2022/07/12 03:00:29;;;;;;;2.30;2.30;;;;;;;;;;5144851;27;20419;-69
2022/07/12 03:02:55;;;;;;;4.05;2.33;;;;;;;;;;5144708;27;20202;-69
2022/07/12 03:05:23;;;;;;;2.70;2.60;;;;;;;;;;5145164;27;20289;-69
2022/07/12 03:07:49;;;;;;;2.80;2.70;;;;;;;;;;5144222;27;20240;-69
2022/07/12 03:10:15;;;;;;;2.75;2.65;;;;;;;;;;5144664;27;20199;-69
2022/07/12 03:12:41;;;;;;;2.83;2.50;;;;;;;;;;5144732;27;20496;-69
2022/07/12 03:15:08;;;;;;;2.95;2.80;;;;;;;;;;5144330;27;20498;-69
2022/07/12 03:17:34;;;;;;;3.60;3.30;;;;;;;;;;5144145;27;20194;-69
2022/07/12 03:20:01;;;;;;;3.45;3.25;;;;;;;;;;5144362;27;20236;-69
2022/07/12 03:22:28;;;;;;;3.15;3.05;;;;;;;;;;5144710;27;20504;-69
2022/07/12 03:24:54;;;;;;;3.08;2.97;;;;;;;;;;5144379;27;20498;-69
2022/07/12 03:27:21;;;;;;;4.10;3.42;;;;;;;;;;5143863;27;20195;-69
2022/07/12 03:29:47;;;;;;;3.67;3.20;;;;;;;;;;5143381;27;20278;-69
2022/07/12 03:32:13;;;;;;;2.80;2.80;;;;;;;;;;5144191;27;20201;-69
2022/07/12 03:34:39;;;;;;;3.10;3.00;;;;;;;;;;5144080;27;20194;-69
2022/07/12 03:37:06;;;;;;;2.90;2.80;;;;;;;;;;5143665;27;20199;-69
2022/07/12 03:39:33;;;;;;;3.75;3.47;;;;;;;;;;5144000;27;20255;-69
2022/07/12 03:42:00;;;;;;;3.55;3.10;;;;;;;;;;5144268;27;20208;-69
2022/07/12 03:44:26;;;;;;;3.50;3.20;;;;;;;;;;5144070;27;20194;-69
2022/07/12 03:46:52;;;;;;;3.92;3.00;;;;;;;;;;5143771;27;20187;-69
2022/07/12 03:49:18;;;;;;;2.75;2.65;;;;;;;;;;5143682;27;20194;-69
2022/07/12 03:51:44;;;;;;;3.10;2.90;;;;;;;;;;5143949;27;20194;-69
2022/07/12 03:54:11;;;;;;;2.75;2.55;;;;;;;;;;5144020;27;20259;-69
2022/07/12 03:59:22;;;;;;;3.30;3.20;;;;;;;;;;5143705;27;20217;-69
2022/07/12 04:01:49;;;;;;;2.60;2.50;;;;;;;;;;5143593;27;20423;-69
2022/07/12 04:04:15;;;;;;;2.90;2.80;;;;;;;;;;5143957;27;20198;-70
2022/07/12 04:06:41;;;;;;;3.50;2.72;;;;;;;;;;5143555;27;20222;-70
2022/07/12 04:09:08;;;;;;;2.83;2.72;;;;;;;;;;5143751;27;20197;-70
2022/07/12 04:11:34;;;;;;;2.80;2.70;;;;;;;;;;5143207;27;20194;-70
2022/07/12 04:14:01;;;;;;;2.92;2.83;;;;;;;;;;5143539;27;20194;-70
2022/07/12 04:16:29;;;;;;;3.10;2.90;;;;;;;;;;5143052;27;20243;-69
2022/07/12 04:18:56;;;;;;;3.05;2.90;;;;;;;;;;5143558;27;20214;-69
2022/07/12 04:21:22;;;;;;;3.60;3.30;;;;;;;;;;5143345;27;20194;-69
2022/07/12 04:23:48;;;;;;;3.05;2.85;;;;;;;;;;5143458;27;20194;-69
2022/07/12 04:26:15;;;;;;;2.92;2.70;;;;;;;;;;5143063;27;20194;-69
2022/07/12 04:28:41;;;;;;;3.95;2.58;;;;;;;;;;5143360;27;20195;-69
2022/07/12 04:31:09;;;;;;;2.90;2.70;;;;;;;;;;5143234;27;20239;-69
2022/07/12 04:33:35;;;;;;;2.33;2.30;;;;;;;;;;5143511;27;20524;-69
2022/07/12 04:36:01;;;;;;;3.05;2.95;;;;;;;;;;5142950;27;20419;-69
2022/07/12 04:38:28;;;;;;;2.50;2.40;;;;;;;;;;5143300;27;20252;-69
2022/07/12 04:40:54;;;;;;;3.63;3.08;;;;;;;;;;5145378;27;20239;-69
2022/07/12 04:43:21;;;;;;;3.47;2.92;;;;;;;;;;5147479;27;20194;-69
2022/07/12 04:45:47;;;;;;;3.38;3.17;;;;;;;;;;5147234;27;20401;-69
2022/07/12 04:48:14;;;;;;;3.58;3.30;;;;;;;;;;5147280;27;20494;-69
2022/07/12 04:50:41;;;;;;;3.47;3.17;;;;;;;;;;5147411;27;20410;-69
2022/07/12 04:53:07;;;;;;;6.47;4.47;;;;;;;;;;5147642;27;20494;-69
2022/07/12 04:55:33;;;;;;;4.95;4.50;;;;;;;;;;5147323;27;20231;-69
2022/07/12 04:57:59;;;;;;;4.03;3.78;;;;;;;;;;5146916;27;20370;-69
2022/07/12 05:00:26;;;;;;;5.13;3.92;;;;;;;;;;5146996;27;20263;-69
2022/07/12 05:02:53;;;;;;;4.57;4.18;;;;;;;;;;5147245;27;20195;-69
2022/07/12 05:05:20;;;;;;;4.07;3.70;;;;;;;;;;5146858;27;20214;-69
2022/07/12 05:07:47;;;;;;;4.25;3.95;;;;;;;;;;5146658;27;20210;-69
2022/07/12 05:10:13;;;;;;;4.68;4.20;;;;;;;;;;5146845;27;20244;-69
2022/07/12 05:12:39;;;;;;;4.80;4.18;;;;;;;;;;5147073;27;20213;-69
2022/07/12 05:15:07;;;;;;;4.93;4.22;;;;;;;;;;5146645;27;20199;-69
2022/07/12 05:17:33;;;;;;;4.30;3.95;;;;;;;;;;5146680;27;20198;-69
2022/07/12 05:19:59;;;;;;;5.03;4.53;;;;;;;;;;5146476;27;20286;-69
2022/07/12 05:22:27;;;;;;;5.03;4.53;;;;;;;;;;5146399;27;20247;-69
2022/07/12 05:24:53;;;;;;;7.57;4.93;;;;;;;;;;5145969;27;20247;-69
2022/07/12 05:27:19;;;;;;;6.15;4.85;;;;;;;;;;5146035;27;20194;-69
2022/07/12 05:29:46;;;;;;;5.32;4.82;;;;;;;;;;5146362;27;20194;-69
2022/07/12 05:32:12;;;;;;;5.57;5.18;;;;;;;;;;5146321;27;20198;-69
2022/07/12 05:34:39;;;;;;;6.90;4.85;;;;;;;;;;5146298;27;20198;-69
2022/07/12 05:37:05;;;;;;;5.65;5.15;;;;;;;;;;5145955;27;20194;-69
2022/07/12 05:39:33;;;;;;;5.60;5.10;;;;;;;;;;5146496;27;20517;-69
2022/07/12 05:41:59;;;;;;;6.00;5.40;;;;;;;;;;5145801;27;20195;-69
2022/07/12 05:44:25;;;;;;;7.15;5.15;;;;;;;;;;5146305;27;20423;-69
2022/07/12 05:46:52;;;;;;;6.03;5.50;;;;;;;;;;5145909;27;20201;-69
2022/07/12 05:49:18;;;;;;;7.18;6.47;;;;;;;;;;5145838;27;20190;-69
2022/07/12 05:54:28;;;;;;;8.50;5.95;;;;;;;;;;5145866;27;20197;-69
2022/07/12 05:56:56;;;;;;;6.97;6.47;;;;;;;;;;5145700;27;20199;-69
2022/07/12 05:59:22;;;;;;;8.18;6.63;;;;;;;;;;5146052;27;20222;-69
2022/07/12 06:01:48;;;;;;;7.10;6.60;;;;;;;;;;5145599;27;20255;-69
2022/07/12 06:04:14;;;;;;;7.15;6.32;;;;;;;;;;5145967;27;20243;-69
2022/07/12 06:06:41;;;;;;;7.63;6.80;;;;;;;;;;5145110;27;20222;-69
2022/07/12 06:09:07;;;;;;;6.95;6.35;;;;;;;;;;5140460;27;20206;-69
2022/07/12 06:11:33;;;;;;;6.72;6.13;;;;;;;;;;5138260;27;20217;-68
2022/07/12 06:14:01;;;;;;;7.15;6.43;;;;;;;;;;5143753;27;20398;-68
2022/07/12 06:16:27;;;;;;;9.00;6.22;;;;;;;;;;5138415;27;20202;-68
2022/07/12 06:18:53;;;;;;;6.88;6.25;;;;;;;;;;5137751;27;20475;-68
2022/07/12 06:21:20;;;;;;;7.95;6.18;;;;;;;;;;5137588;27;20266;-69
2022/07/12 06:23:46;;;;;;;6.57;5.88;;;;;;;;;;5138150;27;20448;-69
2022/07/12 06:26:12;;;;;;;8.32;5.65;;;;;;;;;;5141647;27;20553;-69
2022/07/12 06:28:38;;;;;;;7.40;5.80;;;;;;;;;;5143128;27;20294;-68
2022/07/12 06:31:06;;;;;;;6.28;5.82;;;;;;;;;;5138314;27;20214;-68
2022/07/12 06:33:32;;;;;;;5.28;4.88;;;;;;;;;;5137294;27;20436;-68
2022/07/12 06:35:58;;;;;;;6.40;4.82;;;;;;;;;;5136700;27;20219;-68
2022/07/12 06:38:25;;;;;;;5.40;5.07;;;;;;;;;;5142385;27;20365;-68
2022/07/12 06:40:51;;;;;;;5.28;4.78;;;;;;;;;;5140007;27;20594;-69
2022/07/12 06:43:17;;;;;;;6.50;4.20;;;;;;;;;;5146390;27;20198;-69
2022/07/12 06:45:44;;;;;;;6.07;4.90;;;;;;;;;;5155888;27;20209;-68
2022/07/12 06:48:12;;;;;;;5.28;4.35;;;;;;;;;;5142443;27;20209;-69
2022/07/12 06:50:38;;;;;;;5.28;3.97;;;;;;;;;;5157394;27;20205;-69
2022/07/12 06:53:04;;;;;;;6.88;3.42;;;;;;;;;;5152836;27;20447;-67
2022/07/12 06:55:30;;;;;;;5.88;3.83;;;;;;;;;;5157531;27;20218;-67
2022/07/12 06:57:57;;;;;;;5.78;3.65;;;;;;;;;;5144521;27;20210;-67
2022/07/12 07:00:23;;;;;;;4.70;3.50;;;;;;;;;;5157020;27;20536;-67
2022/07/12 07:02:49;;;;;;;5.38;3.00;;;;;;;;;;5142907;27;20583;-67
2022/07/12 07:05:17;;;;;;;2.85;2.75;;;;;;;;;;5141654;27;20556;-69
2022/07/12 07:07:44;;;;;;;2.92;2.45;;;;;;;;;;5154979;27;20262;-69
2022/07/12 07:10:10;;;;;;;2.50;2.40;;;;;;;;;;5145364;27;20201;-69
2022/07/12 07:12:36;;;;;;;2.47;2.30;;;;;;;;;;5157110;27;20247;-69
2022/07/12 07:15:03;;;;;;;2.38;2.25;;;;;;;;;;5148408;27;20223;-67
2022/07/12 07:17:29;;;;;;;2.95;2.33;;;;;;;;;;5156222;27;20210;-69
2022/07/12 07:19:55;;;;;;;2.08;1.90;;;;;;;;;;5141622;27;20233;-69
2022/07/12 07:22:23;;;;;;;2.67;2.47;;;;;;;;;;5135499;27;20274;-69
2022/07/12 07:24:49;;;;;;;4.32;2.78;;;;;;;;;;5136644;27;20237;-69
2022/07/12 07:27:15;;;;;;;3.33;2.33;;;;;;;;;;5155461;27;20266;-67
2022/07/12 07:32:26;;;;;;;1.83;1.73;;;;;;;;;;5149220;27;20224;-69
2022/07/12 07:34:52;;;;;;;2.55;2.45;;;;;;;;;;5154188;27;20246;-67
2022/07/12 07:37:19;;;;;;;1.67;1.58;;;;;;;;;;5156035;27;20250;-67
2022/07/12 07:39:46;;;;;;;5.68;5.15;;;;;;;;;;5147333;27;20222;-67
2022/07/12 07:42:13;;;;;;;4.00;1.95;;;;;;;;;;5147243;27;20529;-67
2022/07/12 07:44:39;;;;;;;1.45;1.45;;;;;;;;;;5135893;27;20428;-67
2022/07/12 07:47:05;;;;;;;1.50;1.40;;;;;;;;;;5135289;27;20470;-67
2022/07/12 07:49:31;;;;;;;1.10;1.10;;;;;;;;;;5135772;27;20575;-67
2022/07/12 07:51:58;;;;;;;2.28;1.23;;;;;;;;;;5135141;27;20437;-67
2022/07/12 07:54:24;;;;;;;1.10;1.00;;;;;;;;;;5150057;27;20523;-67
2022/07/12 07:56:51;;;;;;;2.33;2.28;;;;;;;;;;5155775;27;20209;-67
2022/07/12 07:59:18;;;;;;;1.50;1.50;;;;;;;;;;5136594;27;20255;-67
2022/07/12 08:01:45;;;;;;;1.00;1.00;;;;;;;;;;5134623;27;20218;-67
2022/07/12 08:04:11;;;;;;;0.95;0.95;;;;;;;;;;5135242;27;20263;-67
2022/07/12 08:06:37;;;;;;;0.40;0.40;;;;;;;;;;5151323;27;20229;-60
2022/07/12 08:09:04;;;;;;;0.68;0.52;;;;;;;;;;5152420;27;20379;-60
2022/07/12 08:11:30;;;;;;;0.70;0.40;;;;;;;;;;5134945;27;20210;-60
2022/07/12 08:13:57;;;;;;;0.40;0.40;;;;;;;;;;5137512;27;20255;-60
2022/07/12 08:16:24;;;;;;;0.22;0.20;;;;;;;;;;5145574;27;20210;-65
2022/07/12 08:18:50;;;;;;;2.58;0.43;;;;;;;;;;5137870;27;20206;-60
2022/07/12 08:21:16;;;;;;;0.40;0.40;;;;;;;;;;5134438;27;20248;-59
2022/07/12 08:23:43;;;;;;;0.30;0.30;;;;;;;;;;5134932;27;20563;-60
2022/07/12 08:26:09;;;;;;;0.20;0.20;;;;;;;;;;5138917;27;20210;-60
2022/07/12 08:28:35;;;;;;;0.30;0.30;;;;;;;;;;5155638;27;20217;-60
2022/07/12 08:31:03;;;;;;;1.05;0.20;;;;;;;;;;5154543;27;20456;-60
2022/07/12 08:33:29;;;;;;;0.20;0.20;;;;;;;;;;5150938;27;20246;-60
2022/07/12 08:35:56;;;;;;;0.20;0.20;;;;;;;;;;5155471;27;20237;-61
2022/07/12 08:38:22;;;;;;;0.20;0.20;;;;;;;;;;5140714;27;20210;-60
2022/07/12 08:40:48;;;;;;;0.30;0.30;;;;;;;;;;5142527;27;20286;-60
2022/07/12 08:43:15;;;;;;;1.58;0.25;;;;;;;;;;5148637;27;20209;-60
2022/07/12 08:45:41;;;;;;;0.20;0.20;;;;;;;;;;5142503;27;20213;-60
2022/07/12 08:48:09;;;;;;;0.90;0.20;;;;;;;;;;5147356;27;20223;-59
2022/07/12 08:50:35;;;;;;;1.75;0.40;;;;;;;;;;5134526;27;20255;-59
2022/07/12 08:53:02;;;;;;;0.30;0.30;;;;;;;;;;5150678;27;20213;-60
2022/07/12 08:55:29;;;;;;;0.40;0.40;;;;;;;;;;5143858;27;20217;-60
2022/07/12 08:57:56;;;;;;;0.30;0.30;;;;;;;;;;5134016;27;20216;-61
2022/07/12 09:00:22;;;;;;;0.20;0.20;;;;;;;;;;5147984;27;20221;-60
2022/07/12 09:02:50;;;;;;;0.85;0.40;;;;;;;;;;5155192;27;20262;-60
2022/07/12 09:05:18;;;;;;;1.38;0.40;;;;;;;;;;5155357;27;20226;-59
2022/07/12 09:07:44;;;;;;;1.38;0.60;;;;;;;;;;5137669;27;20297;-60
2022/07/12 09:10:12;;;;;;;0.68;0.50;;;;;;;;;;5150268;27;20207;-60
2022/07/12 09:12:38;;;;;;;0.40;0.40;;;;;;;;;;5138184;27;20496;-59
2022/07/12 09:15:11;;;;;;;0.40;0.40;;;;;;;;;;5134973;27;20203;-60
2022/07/12 09:17:38;;;;;;;2.85;0.52;;;;;;;;;;5143038;27;20548;-60
2022/07/12 09:20:05;;;;;;;0.47;0.40;;;;;;;;;;5141428;27;20225;-60
2022/07/12 09:22:33;;;;;;;0.57;0.57;;;;;;;;;;5134178;27;20578;-59
2022/07/12 09:25:08;;;;;;;1.92;0.60;;;;;;;;;;5151522;27;20447;-59
2022/07/12 09:27:35;;;;;;;1.45;0.50;;;;;;;;;;5135350;27;20213;-60
2022/07/12 09:30:04;;;;;;;0.60;0.60;;;;;;;;;;5140801;27;20463;-61
2022/07/12 09:38:08;;;;;;;0.45;0.45;;;;;;;;;;5156125;27;20283;-61
2022/07/12 09:40:34;;;;;;;1.50;0.45;;;;;;;;;;5141181;27;20226;-60
2022/07/12 09:43:01;;;;;;;0.32;0.30;;;;;;;;;;5157472;27;20213;-60
2022/07/12 09:45:28;;;;;;;0.88;0.40;;;;;;;;;;5142430;27;20543;-60
2022/07/12 09:47:54;;;;;;;2.72;0.47;;;;;;;;;;5137263;27;20210;-60
2022/07/12 09:50:20;;;;;;;0.35;0.35;;;;;;;;;;5146619;27;20580;-61
2022/07/12 09:52:49;;;;;;;0.68;0.30;;;;;;;;;;5147948;27;20210;-59
2022/07/12 09:55:18;;;;;;;0.30;0.30;;;;;;;;;;5137235;27;20213;-62
2022/07/12 09:57:45;;;;;;;0.22;0.22;;;;;;;;;;5155161;27;20270;-62
2022/07/12 10:00:12;;;;;;;0.30;0.30;;;;;;;;;;5156876;27;20345;-61
2022/07/12 10:02:39;;;;;;;1.10;0.52;;;;;;;;;;5158301;27;20221;-61
2022/07/12 10:05:07;;;;;;;0.82;0.60;;;;;;;;;;5137466;27;20252;-61
2022/07/12 10:07:34;;;;;;;0.50;0.50;;;;;;;;;;5153796;27;20216;-65
2022/07/12 10:10:00;;;;;;;1.65;0.50;;;;;;;;;;5157847;27;20289;-61
2022/07/12 10:12:28;;;;;;;0.22;0.22;;;;;;;;;;5138262;27;20269;-61
2022/07/12 10:14:58;;;;;;;0.57;0.57;;;;;;;;;;5151782;27;20714;-60
2022/07/12 10:17:25;;;;;;;0.70;0.20;;;;;;;;;;5138996;27;20426;-60
2022/07/12 10:20:11;;;;;;;0.30;0.30;;;;;;;;;;5140080;27;20212;-60
2022/07/12 10:22:37;;;;;;;2.50;0.40;;;;;;;;;;5149875;27;20204;-60
2022/07/12 10:25:05;;;;;;;0.20;0.20;;;;;;;;;;5157006;27;20212;-60
2022/07/12 10:27:34;;;;;;;1.65;0.50;;;;;;;;;;5137050;27;20248;-60
2022/07/12 10:30:13;;;;;;;1.65;0.20;;;;;;;;;;5148349;27;20464;-61
2022/07/12 10:32:42;;;;;;;0.30;0.30;;;;;;;;;;5141445;27;20217;-61
2022/07/12 10:35:14;;;;;;;0.65;0.65;;;;;;;;;;5154000;27;20213;-60
2022/07/12 10:37:40;;;;;;;1.60;0.30;;;;;;;;;;5139483;27;20201;-60
2022/07/12 10:40:16;;;;;;;0.20;0.20;;;;;;;;;;5140901;27;20209;-59
2022/07/12 10:43:09;;;;;;;2.92;0.85;;;;;;;;;;5144181;27;20284;-61
2022/07/12 10:45:38;;;;;;;7.38;6.60;;;;;;;;;;5144652;27;20213;-60
2022/07/12 10:48:05;;;;;;;0.52;0.52;;;;;;;;;;5144546;27;20272;-60
2022/07/12 10:50:55;;;;;;;0.57;0.57;;;;;;;;;;5136220;27;20252;-62
2022/07/12 10:53:21;;;;;;;0.68;0.25;;;;;;;;;;5142512;27;20230;-60
2022/07/12 10:56:07;;;;;;;0.20;0.20;;;;;;;;;;5142265;27;20301;-61
2022/07/12 10:58:35;;;;;;;0.70;0.25;;;;;;;;;;5140333;27;20217;-61
2022/07/12 11:01:02;;;;;;;0.52;0.30;;;;;;;;;;5144385;27;20221;-61
2022/07/12 11:03:31;;;;;;;0.20;0.20;;;;;;;;;;5140469;27;20217;-61
2022/07/12 11:06:00;;;;;;;0.30;0.30;;;;;;;;;;5135681;27;20232;-60
2022/07/12 11:08:26;;;;;;;1.27;0.10;;;;;;;;;;5135208;27;20216;-61
2022/07/12 11:10:56;;;;;;;0.38;0.30;;;;;;;;;;5136236;27;20206;-62
2022/07/12 11:13:22;;;;;;;1.73;0.20;;;;;;;;;;5137989;27;20408;-60
2022/07/12 11:15:57;;;;;;;1.00;0.28;;;;;;;;;;5157328;27;20524;-60
2022/07/12 11:18:30;;;;;;;1.50;0.30;;;;;;;;;;5142704;27;20604;-60
2022/07/12 11:20:57;;;;;;;0.30;0.30;;;;;;;;;;5136965;27;20286;-60
2022/07/12 11:23:25;;;;;;;0.10;0.10;;;;;;;;;;5135205;27;20210;-61
2022/07/12 11:25:51;;;;;;;0.20;0.20;;;;;;;;;;5135287;27;20217;-61
2022/07/12 11:28:18;;;;;;;0.30;0.30;;;;;;;;;;5149715;27;20262;-60
2022/07/12 11:30:48;;;;;;;0.98;0.20;;;;;;;;;;5156122;27;20238;-61
2022/07/12 11:33:16;;;;;;;0.30;0.30;;;;;;;;;;5156104;27;20213;-61
2022/07/12 11:35:44;;;;;;;0.30;0.30;;;;;;;;;;5155180;27;20550;-60
2022/07/12 11:38:10;;;;;;;0.55;0.30;;;;;;;;;;5150995;27;20440;-60
2022/07/12 11:40:37;;;;;;;0.52;0.20;;;;;;;;;;5147530;27;20229;-61
2022/07/12 11:43:04;;;;;;;0.20;0.20;;;;;;;;;;5135992;27;20218;-61
2022/07/12 11:45:31;;;;;;;0.32;0.20;;;;;;;;;;5135587;27;20225;-61
2022/07/12 11:47:59;;;;;;;0.20;0.20;;;;;;;;;;5135499;27;20210;-61
2022/07/12 11:50:27;;;;;;;0.30;0.30;;;;;;;;;;5134105;27;20471;-61
2022/07/12 11:52:53;;;;;;;0.30;0.30;;;;;;;;;;5134841;27;20474;-61
2022/07/12 11:55:20;;;;;;;0.17;0.17;;;;;;;;;;5153758;27;20219;-61
2022/07/12 11:57:46;;;;;;;0.30;0.30;;;;;;;;;;5155181;27;20425;-61
2022/07/12 12:00:19;;;;;;;0.65;0.10;;;;;;;;;;5154766;27;20209;-61
2022/07/12 12:02:46;;;;;;;0.20;0.20;;;;;;;;;;5147514;27;20274;-62
2022/07/12 12:05:12;;;;;;;0.20;0.20;;;;;;;;;;5154801;27;20237;-62
2022/07/12 12:07:40;;;;;;;0.47;0.28;;;;;;;;;;5156535;27;20217;-60
2022/07/12 12:10:11;;;;;;;0.43;0.20;;;;;;;;;;5139883;27;20294;-60
2022/07/12 12:12:38;;;;;;;1.55;0.20;;;;;;;;;;5136227;27;20228;-61
2022/07/12 12:15:06;;;;;;;0.47;0.25;;;;;;;;;;5135550;27;20537;-61
2022/07/12 12:17:33;;;;;;;0.32;0.32;;;;;;;;;;5134829;27;20206;-61
2022/07/12 12:20:04;;;;;;;0.32;0.10;;;;;;;;;;5137990;27;20250;-61
2022/07/12 12:22:33;;;;;;;0.20;0.20;;;;;;;;;;5141784;27;20674;-61
2022/07/12 12:25:01;;;;;;;0.20;0.20;;;;;;;;;;5155638;27;20275;-62
2022/07/12 12:27:28;;;;;;;0.20;0.20;;;;;;;;;;5148641;27;20210;-62
2022/07/12 12:29:54;;;;;;;0.43;0.30;;;;;;;;;;5149554;27;20205;-62
2022/07/12 12:32:20;;;;;;;1.42;0.20;;;;;;;;;;5155019;27;20209;-62
2022/07/12 12:35:01;;;;;;;0.30;0.30;;;;;;;;;;5141900;27;20255;-63
2022/07/12 12:37:28;;;;;;;0.95;0.30;;;;;;;;;;5134529;27;20213;-61
2022/07/12 12:39:54;;;;;;;0.10;0.10;;;;;;;;;;5144971;27;20216;-61
2022/07/12 12:42:25;;;;;;;0.25;0.25;;;;;;;;;;5153005;27;20236;-62
2022/07/12 12:44:52;;;;;;;0.00;0.00;;;;;;;;;;5135344;27;20556;-61
2022/07/12 12:47:34;;;;;;;0.38;0.30;;;;;;;;;;5134214;27;20513;-62
2022/07/12 12:50:01;;;;;;;0.73;0.20;;;;;;;;;;5137717;27;20214;-62
2022/07/12 12:52:27;;;;;;;1.52;0.20;;;;;;;;;;5152632;27;20197;-62
2022/07/12 12:54:54;;;;;;;0.28;0.20;;;;;;;;;;5149351;27;20209;-62
2022/07/12 12:57:20;;;;;;;1.17;0.30;;;;;;;;;;5154226;27;20213;-63
2022/07/12 12:59:48;;;;;;;0.55;0.15;;;;;;;;;;5142324;27;20215;-63
2022/07/12 13:02:14;;;;;;;0.10;0.10;;;;;;;;;;5157076;27;20225;-62
2022/07/12 13:04:41;;;;;;;0.75;0.30;;;;;;;;;;5145940;27;20217;-61
2022/07/12 13:07:07;;;;;;;0.20;0.20;;;;;;;;;;5138441;27;20218;-62
2022/07/12 13:09:33;;;;;;;0.28;0.20;;;;;;;;;;5146551;27;20520;-62
2022/07/12 13:12:00;;;;;;;1.17;0.20;;;;;;;;;;5147960;27;20210;-62
2022/07/12 13:14:27;;;;;;;1.40;0.20;;;;;;;;;;5138978;27;20209;-62
2022/07/12 13:16:54;;;;;;;0.10;0.10;;;;;;;;;;5139034;27;20216;-62
2022/07/12 13:19:21;;;;;;;1.50;0.20;;;;;;;;;;5142683;27;20206;-62
2022/07/12 13:21:47;;;;;;;0.13;0.10;;;;;;;;;;5139169;27;20488;-62
2022/07/12 13:24:13;;;;;;;0.20;0.20;;;;;;;;;;5154171;27;20499;-63
2022/07/12 13:26:39;;;;;;;0.45;0.25;;;;;;;;;;5141590;27;20206;-62
2022/07/12 13:29:06;;;;;;;1.50;0.30;;;;;;;;;;5138190;27;20455;-64
2022/07/12 13:31:32;;;;;;;0.30;0.15;;;;;;;;;;5154160;27;20205;-67
2022/07/12 13:33:59;;;;;;;0.20;0.20;;;;;;;;;;5158403;27;20208;-72
2022/07/12 13:36:26;;;;;;;0.10;0.10;;;;;;;;;;5158511;27;20250;-72
2022/07/12 13:38:52;;;;;;;2.13;0.28;;;;;;;;;;5158813;27;20209;-72
2022/07/12 13:41:19;;;;;;;0.10;0.10;;;;;;;;;;5158444;27;20233;-72
2022/07/12 13:43:45;;;;;;;0.20;0.20;;;;;;;;;;5156463;27;20209;-72
2022/07/12 13:46:11;;;;;;;0.90;0.32;;;;;;;;;;5136899;27;20534;-72
2022/07/12 13:48:37;;;;;;;2.85;0.20;;;;;;;;;;5138610;27;20561;-72
2022/07/12 13:51:05;;;;;;;1.85;0.20;;;;;;;;;;5137649;27;20574;-72
2022/07/12 13:53:31;;;;;;;0.25;0.22;;;;;;;;;;5138078;27;20693;-72
2022/07/12 13:55:58;;;;;;;1.27;0.30;;;;;;;;;;5137406;27;20216;-72
2022/07/12 13:58:24;;;;;;;0.45;0.20;;;;;;;;;;5148980;27;20209;-72
2022/07/12 14:00:51;;;;;;;2.30;0.20;;;;;;;;;;5158023;27;20216;-72
2022/07/12 14:03:17;;;;;;;0.55;0.17;;;;;;;;;;5149298;27;20406;-72
2022/07/12 14:05:43;;;;;;;1.35;0.10;;;;;;;;;;5138040;27;20454;-72
2022/07/12 14:08:11;;;;;;;0.20;0.20;;;;;;;;;;5150508;27;20585;-72
2022/07/12 14:10:37;;;;;;;1.95;0.22;;;;;;;;;;5150827;27;20216;-72
2022/07/12 14:13:03;;;;;;;0.80;0.20;;;;;;;;;;5153128;27;20215;-72
2022/07/12 14:15:39;;;;;;;0.20;0.20;;;;;;;;;;5158377;27;20213;-72
2022/07/12 14:18:06;;;;;;;0.20;0.20;;;;;;;;;;5158621;27;20208;-72
2022/07/12 14:20:34;;;;;;;0.25;0.25;;;;;;;;;;5154190;27;20227;-72
2022/07/12 14:23:00;;;;;;;0.10;0.10;;;;;;;;;;5146478;27;20233;-72
2022/07/12 14:25:28;;;;;;;0.10;0.10;;;;;;;;;;5137561;27;20444;-72
2022/07/12 14:27:54;;;;;;;0.20;0.20;;;;;;;;;;5136692;27;20210;-72
2022/07/12 14:30:21;;;;;;;0.20;0.20;;;;;;;;;;5138651;27;20229;-72
2022/07/12 14:32:48;;;;;;;0.20;0.20;;;;;;;;;;5145151;27;20206;-72
2022/07/12 14:35:14;;;;;;;0.22;0.22;;;;;;;;;;5157262;27;20243;-72
2022/07/12 14:37:40;;;;;;;1.65;0.30;;;;;;;;;;5136828;27;20213;-72
2022/07/12 14:40:07;;;;;;;1.35;0.20;;;;;;;;;;5141943;27;20517;-72
2022/07/12 14:42:36;;;;;;;1.75;0.30;;;;;;;;;;5137097;27;20271;-72
2022/07/12 14:45:02;;;;;;;0.63;0.20;;;;;;;;;;5150555;27;20293;-72
2022/07/12 14:47:29;;;;;;;1.75;0.20;;;;;;;;;;5147836;27;20209;-72
2022/07/12 14:49:56;;;;;;;1.10;0.30;;;;;;;;;;5155214;27;20741;-70
2022/07/12 14:52:22;;;;;;;0.70;0.20;;;;;;;;;;5155246;27;20447;-70
2022/07/12 14:54:50;;;;;;;0.13;0.13;;;;;;;;;;5147796;27;20544;-70
2022/07/12 14:57:17;;;;;;;0.40;0.30;;;;;;;;;;5136149;27;20210;-70